Pershing, Iowa
Current Conditions -  °F | °C
As of 3:55 AM on Sunday 25 Jan 2015 (Local Time) from KOXV Reporting Station
Unknown Precip Unknown Precip  
Wind Chill: 34°   Ceiling: 800
Heat Index: 39°   Visibility: 6mi
Dew Point: 37°   Wind: 7mph
Humidity: 93%   Direction: 40°NE
Pressure: 29.53"   Gusts: NA
Location:  41.3041°N, 93.0961°W
Report Text: KOXV 250955Z AUTO 04006KT 6SM -UP OVC008 04/03 A2953 RMK AO2 P0001
Loading
Personal Weather Stations






























Interactive Weather Map New forecast layout! Learn more

10-Day Weather Forecast

Advertisements
Track Severe Weather on mobile